Terminal Aerodrome Forecast
Issued by NWS Charleston, WV

Current Version | Previous Version | Graphics & Text | Print | Product List | Glossary On
Versions: 1 2 3 4 5 6 7 8 9 10 11 12 13 14 15 16 17 18 19 20 21 22 23 24 25 26 27 28 29 30 31 32
000
FTUS41 KRLX 210500
TAFHTS
TAF
KHTS 210534Z 2106/2206 00000KT 3SM BR FEW001 SCT040
      TEMPO 2106/2108 1SM BR BKN001
     FM211100 00000KT 1SM BR BKN001
     FM211200 00000KT 4SM BR SCT002
     FM211300 VRB03KT P6SM FEW003 SCT060
     FM211600 00000KT P6SM SCT250
     FM212100 VRB03KT P6SM SCT045=

USA.gov is the U.S. government's official web portal to all federal, state and local government web resources and services.